createdAt,value
2018-10-11T00:00:55.989Z,16.80
2018-10-11T00:03:24.453Z,18.23
2018-10-11T00:05:52.965Z,16.13
2018-10-11T00:08:21.421Z,19.20
2018-10-11T00:10:49.850Z,17.97
2018-10-11T00:13:18.350Z,17.93
2018-10-11T00:15:46.796Z,18.67
2018-10-11T00:18:15.254Z,18.43
2018-10-11T00:20:43.691Z,18.77
2018-10-11T00:23:12.122Z,18.73
2018-10-11T00:25:40.568Z,17.00
2018-10-11T00:28:09.016Z,18.53
2018-10-11T00:30:37.493Z,17.97
2018-10-11T00:33:06.069Z,20.00
2018-10-11T00:35:34.502Z,19.27
2018-10-11T00:38:02.966Z,18.83
2018-10-11T00:40:31.417Z,21.90
2018-10-11T00:42:59.869Z,18.93
2018-10-11T00:45:28.304Z,19.30
2018-10-11T00:47:56.752Z,18.23
2018-10-11T00:50:25.209Z,17.60
2018-10-11T00:52:53.650Z,17.53
2018-10-11T00:55:22.201Z,19.33
2018-10-11T00:57:50.647Z,17.53
2018-10-11T01:00:19.168Z,17.80
2018-10-11T01:02:47.601Z,20.00
2018-10-11T01:05:16.062Z,20.63
2018-10-11T01:07:44.505Z,17.83
2018-10-11T01:10:12.961Z,16.77
2018-10-11T01:12:41.413Z,19.13
2018-10-11T01:15:09.861Z,22.67
2018-10-11T01:17:38.318Z,19.60
2018-10-11T01:20:06.793Z,18.10
2018-10-11T01:22:35.249Z,17.93
2018-10-11T01:25:03.708Z,18.43
2018-10-11T01:27:32.189Z,18.10
2018-10-11T01:30:00.648Z,20.27
2018-10-11T01:32:29.155Z,16.27
2018-10-11T01:34:57.652Z,19.70
2018-10-11T01:37:26.768Z,21.00
2018-10-11T01:39:55.302Z,16.33
2018-10-11T01:42:23.737Z,18.13
2018-10-11T01:44:52.213Z,18.03
2018-10-11T01:47:20.685Z,24.23
2018-10-11T01:49:49.153Z,27.70
2018-10-11T01:52:17.614Z,25.27
2018-10-11T01:54:49.384Z,25.03
2018-10-11T01:57:17.857Z,23.23
2018-10-11T01:59:46.303Z,23.20
2018-10-11T02:02:14.756Z,18.23
2018-10-11T02:04:43.208Z,16.90
2018-10-11T02:07:11.712Z,22.43
2018-10-11T02:09:40.300Z,18.97
2018-10-11T02:12:09.766Z,17.73
2018-10-11T02:14:38.210Z,19.93
2018-10-11T02:17:06.777Z,21.13
2018-10-11T02:19:35.329Z,20.87
2018-10-11T02:22:03.804Z,19.03
2018-10-11T02:24:32.250Z,21.30
2018-10-11T02:27:00.689Z,21.17
2018-10-11T02:29:29.164Z,20.07
2018-10-11T02:31:57.688Z,19.67
2018-10-11T02:34:26.499Z,20.70
2018-10-11T02:36:54.932Z,22.67
2018-10-11T02:39:23.383Z,18.00
2018-10-11T02:41:51.832Z,17.97
2018-10-11T02:44:20.284Z,23.77
2018-10-11T02:46:48.733Z,26.70
2018-10-11T02:49:17.248Z,20.40
2018-10-11T02:51:45.702Z,19.63
2018-10-11T02:54:14.165Z,18.97
2018-10-11T02:56:42.746Z,18.23
2018-10-11T02:59:48.421Z,15.80
2018-10-11T03:02:16.984Z,16.40
2018-10-11T03:04:47.241Z,17.03
2018-10-11T03:07:16.872Z,15.83
2018-10-11T03:09:45.392Z,16.00
2018-10-11T03:12:13.877Z,14.73
2018-10-11T03:14:42.346Z,15.70
2018-10-11T03:17:11.187Z,16.23
2018-10-11T03:19:40.103Z,17.50
2018-10-11T03:22:09.037Z,17.50
2018-10-11T03:24:37.481Z,16.03
2018-10-11T03:27:05.977Z,18.17
2018-10-11T03:29:34.413Z,16.87
2018-10-11T03:32:02.969Z,16.30
2018-10-11T03:34:31.441Z,17.40
2018-10-11T03:37:00.139Z,15.53
2018-10-11T03:39:29.648Z,15.20
2018-10-11T03:41:59.083Z,17.73
2018-10-11T03:44:28.069Z,16.23
2018-10-11T03:46:56.769Z,15.60
2018-10-11T03:49:25.646Z,18.23
2018-10-11T03:51:54.108Z,15.33
2018-10-11T03:54:22.966Z,19.57
2018-10-11T03:56:51.507Z,17.67
2018-10-11T03:59:21.322Z,18.00
2018-10-11T04:01:50.411Z,17.53
2018-10-11T04:04:20.284Z,17.50
2018-10-11T04:06:48.790Z,16.03
2018-10-11T04:09:17.302Z,18.60
2018-10-11T04:11:45.855Z,17.47
2018-10-11T04:14:14.356Z,19.10
2018-10-11T04:16:42.871Z,25.83
2018-10-11T04:19:11.591Z,24.55
2018-10-11T04:21:40.172Z,20.00
2018-10-11T04:24:10.261Z,19.83
2018-10-11T04:26:40.520Z,20.87
2018-10-11T04:29:09.067Z,20.47
2018-10-11T04:31:38.362Z,20.70
2018-10-11T04:34:09.196Z,16.53
2018-10-11T04:37:08.006Z,17.47
2018-10-11T04:39:37.730Z,14.23
2018-10-11T04:42:07.132Z,17.83
2018-10-11T04:44:36.706Z,17.03
2018-10-11T04:47:06.500Z,16.97
2018-10-11T04:49:36.367Z,15.57
2018-10-11T04:52:04.904Z,16.20
2018-10-11T04:54:33.899Z,16.50
2018-10-11T04:57:02.403Z,15.07
2018-10-11T04:59:30.948Z,15.87
2018-10-11T05:01:59.521Z,15.03
2018-10-11T05:04:28.852Z,14.20
2018-10-11T05:06:57.314Z,15.17
2018-10-11T05:09:25.806Z,14.37
2018-10-11T05:11:54.650Z,21.07
2018-10-11T05:14:23.237Z,25.30
2018-10-11T05:16:51.899Z,15.33
2018-10-11T05:19:20.870Z,15.47
2018-10-11T05:21:50.060Z,14.83
2018-10-11T05:24:18.922Z,15.03
2018-10-11T05:26:47.470Z,16.80
2018-10-11T05:29:15.938Z,18.97
2018-10-11T05:31:45.741Z,14.50
2018-10-11T05:34:14.267Z,17.90
2018-10-11T05:36:43.214Z,17.50
2018-10-11T05:39:11.777Z,18.87
2018-10-11T05:41:40.336Z,17.60
2018-10-11T05:44:09.115Z,16.97
2018-10-11T05:46:37.696Z,14.97
2018-10-11T05:49:07.091Z,17.20
2018-10-11T05:51:36.123Z,17.60
2018-10-11T05:54:05.136Z,15.97
2018-10-11T05:56:36.060Z,16.10
2018-10-11T05:59:05.642Z,15.77
2018-10-11T06:01:34.357Z,16.67
2018-10-11T06:04:04.455Z,15.43
2018-10-11T06:06:33.144Z,15.87
2018-10-11T06:09:01.844Z,15.43
2018-10-11T06:11:30.488Z,16.33
2018-10-11T06:13:59.332Z,16.10
2018-10-11T06:16:28.599Z,16.53
2018-10-11T06:18:57.213Z,15.60
2018-10-11T06:21:26.552Z,17.13
2018-10-11T06:23:55.234Z,14.63
2018-10-11T06:26:23.688Z,18.57
2018-10-11T06:28:52.204Z,15.73
2018-10-11T06:31:20.770Z,14.43
2018-10-11T06:33:49.304Z,15.67
2018-10-11T06:36:17.875Z,16.80
2018-10-11T06:38:46.377Z,16.40
2018-10-11T06:41:15.089Z,16.50
2018-10-11T06:43:43.643Z,18.50
2018-10-11T06:46:12.776Z,17.53
2018-10-11T06:48:41.249Z,17.03
2018-10-11T06:51:09.788Z,21.93
2018-10-11T06:53:38.446Z,22.87
2018-10-11T06:56:06.988Z,21.83
2018-10-11T06:58:35.365Z,19.70
2018-10-11T07:01:03.864Z,20.57
2018-10-11T07:03:32.301Z,19.90
2018-10-11T07:06:00.730Z,19.60
2018-10-11T07:08:29.156Z,21.73
2018-10-11T07:10:57.602Z,20.90
2018-10-11T07:13:26.052Z,24.33
2018-10-11T07:15:54.479Z,25.03
2018-10-11T07:18:22.916Z,20.03
2018-10-11T07:20:51.352Z,23.67
2018-10-11T07:23:19.781Z,25.57
2018-10-11T07:25:48.220Z,22.63
2018-10-11T07:28:16.667Z,24.67
2018-10-11T07:30:45.120Z,23.07
2018-10-11T07:33:13.545Z,23.03
2018-10-11T07:35:41.985Z,25.57
2018-10-11T07:38:10.590Z,23.83
2018-10-11T07:40:39.118Z,24.13
2018-10-11T07:43:07.460Z,26.17
2018-10-11T07:45:35.906Z,24.93
2018-10-11T07:48:04.360Z,26.83
2018-10-11T07:50:32.805Z,23.03
2018-10-11T07:53:01.302Z,24.73
2018-10-11T07:55:29.729Z,25.53
2018-10-11T07:57:58.172Z,25.40
2018-10-11T08:00:26.614Z,23.83
2018-10-11T08:02:55.130Z,25.33
2018-10-11T08:05:23.706Z,23.23
2018-10-11T08:07:52.193Z,23.20
2018-10-11T08:10:20.854Z,27.50
2018-10-11T08:12:49.365Z,22.10
2018-10-11T08:15:18.246Z,21.17
2018-10-11T08:17:47.037Z,26.83
2018-10-11T08:20:15.652Z,24.40
2018-10-11T08:22:44.073Z,24.30
2018-10-11T08:25:12.696Z,23.50
2018-10-11T08:27:41.413Z,23.43
2018-10-11T08:30:09.870Z,23.87
2018-10-11T08:32:38.959Z,24.20
2018-10-11T08:35:07.479Z,24.47
2018-10-11T08:37:37.073Z,23.20
2018-10-11T08:40:06.460Z,25.87
2018-10-11T08:42:35.581Z,25.50
2018-10-11T08:45:04.550Z,23.67
2018-10-11T08:47:33.574Z,25.60
2018-10-11T08:50:02.586Z,24.00
2018-10-11T08:52:31.725Z,25.87
2018-10-11T08:55:00.796Z,22.77
2018-10-11T08:57:30.797Z,22.87
2018-10-11T09:00:12.307Z,21.20
2018-10-11T09:02:41.096Z,21.50
2018-10-11T09:05:10.569Z,20.73
2018-10-11T09:07:39.366Z,21.47
2018-10-11T09:10:08.402Z,22.20
2018-10-11T09:12:37.866Z,22.03
2018-10-11T09:15:07.311Z,21.67
2018-10-11T09:17:36.162Z,19.87
2018-10-11T09:20:05.127Z,18.93
2018-10-11T09:22:35.494Z,18.33
2018-10-11T09:25:04.490Z,21.37
2018-10-11T09:27:33.987Z,20.67
2018-10-11T09:30:03.143Z,22.13
2018-10-11T09:32:32.273Z,20.97
2018-10-11T09:35:01.647Z,23.07
2018-10-11T09:37:31.037Z,19.23
2018-10-11T09:41:24.738Z,20.47
2018-10-11T09:43:54.448Z,20.00
2018-10-11T09:49:31.670Z,21.10
2018-10-11T09:52:01.036Z,20.27
2018-10-11T09:54:29.782Z,18.37
2018-10-11T09:57:12.652Z,20.70
2018-10-11T09:59:42.003Z,18.83
2018-10-11T10:02:31.714Z,18.73
2018-10-11T10:05:03.357Z,18.37
2018-10-11T10:07:32.376Z,18.63
2018-10-11T10:10:01.198Z,16.50
2018-10-11T10:12:30.233Z,18.07
2018-10-11T10:14:59.396Z,17.23
2018-10-11T10:17:38.815Z,17.87
2018-10-11T10:20:07.891Z,18.30
2018-10-11T10:22:36.545Z,18.47
2018-10-11T10:25:05.138Z,17.87
2018-10-11T10:27:34.230Z,18.63
2018-10-11T10:30:08.307Z,17.27
2018-10-11T10:32:37.202Z,15.07
2018-10-11T10:35:06.313Z,18.80
2018-10-11T10:37:34.996Z,17.23
2018-10-11T10:40:04.567Z,15.97
2018-10-11T10:42:34.838Z,15.73
2018-10-11T10:45:03.744Z,15.30
2018-10-11T10:47:32.740Z,18.50
2018-10-11T10:50:01.750Z,17.90
2018-10-11T10:52:30.545Z,17.93
2018-10-11T10:54:59.473Z,16.67
2018-10-11T10:57:28.451Z,14.07
2018-10-11T10:59:58.358Z,17.57
2018-10-11T11:02:27.097Z,13.83
2018-10-11T11:04:56.077Z,16.63
2018-10-11T11:07:24.712Z,15.67
2018-10-11T11:09:53.535Z,16.17
2018-10-11T11:12:22.345Z,13.67
2018-10-11T11:14:51.282Z,16.73
2018-10-11T11:17:20.215Z,14.93
2018-10-11T11:19:49.873Z,15.07
2018-10-11T11:22:18.577Z,16.37
2018-10-11T11:24:48.461Z,12.07
2018-10-11T11:27:17.356Z,11.57
2018-10-11T11:29:46.184Z,13.10
2018-10-11T11:32:16.528Z,13.87
2018-10-11T11:34:45.845Z,13.87
2018-10-11T11:37:14.404Z,13.67
2018-10-11T11:39:43.208Z,14.10
2018-10-11T11:47:02.362Z,13.10
2018-10-11T11:49:31.068Z,14.30
2018-10-11T11:52:00.339Z,13.47
2018-10-11T11:54:29.483Z,12.33
2018-10-11T11:56:58.129Z,12.73
2018-10-11T11:59:27.581Z,13.43
2018-10-11T12:01:56.633Z,12.13
2018-10-11T12:04:25.600Z,8.23
2018-10-11T12:06:54.610Z,10.10
2018-10-11T12:09:24.228Z,12.23
2018-10-11T12:11:53.418Z,8.13
2018-10-11T12:14:22.289Z,12.13
2018-10-11T12:16:51.157Z,10.73
2018-10-11T12:19:20.053Z,12.10
2018-10-11T12:21:48.504Z,11.43
2018-10-11T12:24:17.592Z,11.50
2018-10-11T12:26:46.079Z,11.07
2018-10-11T12:29:14.533Z,9.87
2018-10-11T12:31:42.989Z,9.90
2018-10-11T12:34:11.789Z,8.00
2018-10-11T12:36:40.221Z,10.20
2018-10-11T12:39:09.408Z,9.87
2018-10-11T12:41:37.900Z,9.97
2018-10-11T12:44:06.599Z,7.43
2018-10-11T12:46:35.371Z,7.30
2018-10-11T12:49:03.529Z,10.00
2018-10-11T12:51:31.985Z,8.63
2018-10-11T12:54:00.509Z,8.33
2018-10-11T12:56:29.024Z,8.40
2018-10-11T12:58:57.399Z,9.03
2018-10-11T13:01:25.839Z,8.90
2018-10-11T13:03:54.280Z,8.30
2018-10-11T13:06:22.738Z,6.40
2018-10-11T13:08:51.203Z,9.03
2018-10-11T13:11:19.662Z,7.70
2018-10-11T13:13:51.172Z,7.77
2018-10-11T13:16:17.322Z,8.37
2018-10-11T13:18:45.756Z,8.10
2018-10-11T13:21:14.216Z,6.87
2018-10-11T13:23:42.665Z,7.00
2018-10-11T13:26:11.113Z,7.07
2018-10-11T13:28:39.624Z,7.77
2018-10-11T13:31:08.028Z,7.80
2018-10-11T13:33:36.472Z,7.63
2018-10-11T13:36:04.925Z,7.33
2018-10-11T13:38:33.399Z,6.20
2018-10-11T13:41:03.703Z,8.23
2018-10-11T13:43:30.739Z,6.03
2018-10-11T13:46:01.975Z,7.33
2018-10-11T13:48:27.648Z,5.43
2018-10-11T13:50:56.082Z,5.13
2018-10-11T13:53:24.798Z,6.67
2018-10-11T13:55:57.685Z,4.90
2018-10-11T13:58:22.629Z,6.30
2018-10-11T14:00:51.085Z,7.30
2018-10-11T14:03:19.548Z,6.20
2018-10-11T14:05:48.522Z,5.20
2018-10-11T14:08:17.909Z,7.07
2018-10-11T14:10:46.456Z,5.40
2018-10-11T14:13:16.433Z,6.63
2018-10-11T14:15:43.274Z,6.40
2018-10-11T14:18:12.770Z,6.90
2018-10-11T14:20:40.523Z,5.70
2018-10-11T14:23:09.025Z,6.70
2018-10-11T14:25:37.474Z,4.93
2018-10-11T14:28:06.284Z,6.20
2018-10-11T14:30:34.752Z,6.60
2018-10-11T14:33:03.228Z,6.07
2018-10-11T14:35:31.667Z,5.67
2018-10-11T14:38:00.196Z,6.37
2018-10-11T14:40:28.721Z,7.37
2018-10-11T14:42:57.196Z,6.60
2018-10-11T14:45:25.676Z,5.80
2018-10-11T14:47:54.225Z,5.33
2018-10-11T14:50:22.706Z,6.57
2018-10-11T14:52:51.143Z,6.67
2018-10-11T14:55:19.664Z,6.93
2018-10-11T14:57:48.150Z,5.80
2018-10-11T15:00:16.602Z,6.27
2018-10-11T15:02:45.092Z,6.43
2018-10-11T15:05:13.565Z,4.97
2018-10-11T15:07:42.008Z,6.67
2018-10-11T15:10:10.485Z,5.70
2018-10-11T15:12:38.941Z,6.00
2018-10-11T15:15:07.536Z,6.17
2018-10-11T15:17:35.979Z,6.50
2018-10-11T15:20:04.557Z,6.30
2018-10-11T15:22:33.213Z,6.33
2018-10-11T15:25:01.724Z,4.57
2018-10-11T15:27:30.238Z,6.07
2018-10-11T15:29:58.778Z,5.43
2018-10-11T15:32:27.284Z,4.97
2018-10-11T15:34:55.856Z,6.33
2018-10-11T15:37:24.440Z,4.57
2018-10-11T15:39:52.989Z,4.50
2018-10-11T15:42:21.499Z,5.03
2018-10-11T15:44:50.105Z,6.10
2018-10-11T15:47:18.704Z,5.33
2018-10-11T15:49:47.333Z,5.47
2018-10-11T15:52:16.069Z,6.73
2018-10-11T15:54:44.617Z,4.77
2018-10-11T15:57:13.224Z,4.27
2018-10-11T15:59:42.027Z,5.17
2018-10-11T16:02:10.728Z,6.10
2018-10-11T16:04:39.265Z,5.03
2018-10-11T16:07:07.875Z,6.07
2018-10-11T16:09:36.564Z,5.77
2018-10-11T16:12:05.282Z,6.37
2018-10-11T16:14:33.796Z,6.13
2018-10-11T16:17:02.432Z,5.70
2018-10-11T16:19:31.257Z,6.33
2018-10-11T16:21:59.785Z,6.30
2018-10-11T16:24:29.298Z,6.13
2018-10-11T16:26:57.962Z,5.83
2018-10-11T16:29:26.586Z,5.00
2018-10-11T16:31:55.162Z,4.57
2018-10-11T16:34:23.694Z,4.43
2018-10-11T16:36:52.189Z,6.03
2018-10-11T16:39:20.677Z,7.75
2018-10-11T16:41:49.186Z,7.30
2018-10-11T16:44:17.681Z,4.70
2018-10-11T16:46:46.609Z,6.30
2018-10-11T16:49:15.157Z,6.67
2018-10-11T16:51:44.148Z,6.20
2018-10-11T16:54:12.674Z,6.40
2018-10-11T16:56:43.415Z,7.13
2018-10-11T16:59:11.976Z,6.73
2018-10-11T17:01:43.505Z,6.77
2018-10-11T17:04:12.503Z,7.90
2018-10-11T17:06:40.958Z,6.73
2018-10-11T17:09:10.700Z,6.83
2018-10-11T17:11:39.374Z,7.57
2018-10-11T17:14:07.968Z,6.57
2018-10-11T17:16:36.560Z,6.97
2018-10-11T17:19:07.067Z,6.43
2018-10-11T17:21:36.085Z,6.00
2018-10-11T17:24:04.889Z,8.17
2018-10-11T17:26:34.122Z,7.73
2018-10-11T17:29:02.644Z,8.40
2018-10-11T17:31:31.192Z,7.60
2018-10-11T17:34:00.150Z,6.00
2018-10-11T17:36:28.626Z,7.23
2018-10-11T17:39:14.824Z,5.97
2018-10-11T17:41:44.250Z,8.47
2018-10-11T17:44:40.360Z,7.33
2018-10-11T17:49:48.506Z,8.30
2018-10-11T17:52:18.422Z,7.60
2018-10-11T17:54:51.901Z,8.40
2018-10-11T17:57:20.872Z,7.50
2018-10-11T17:59:50.405Z,6.40
2018-10-11T18:02:19.964Z,6.17
2018-10-11T18:04:48.496Z,6.67
2018-10-11T18:07:16.976Z,7.10
2018-10-11T18:09:45.481Z,6.67
2018-10-11T18:12:13.968Z,6.30
2018-10-11T18:14:42.434Z,9.00
2018-10-11T18:17:11.153Z,8.00
2018-10-11T18:19:39.639Z,7.17
2018-10-11T18:22:08.140Z,7.20
2018-10-11T18:24:36.631Z,9.20
2018-10-11T18:27:05.134Z,7.67
2018-10-11T18:29:33.989Z,9.00
2018-10-11T18:32:02.482Z,9.00
2018-10-11T18:34:31.397Z,7.07
2018-10-11T18:36:59.864Z,7.10
2018-10-11T18:39:28.380Z,7.20
2018-10-11T18:41:56.867Z,9.97
2018-10-11T18:44:25.319Z,8.57
2018-10-11T18:46:53.791Z,7.07
2018-10-11T18:49:22.309Z,8.23
2018-10-11T18:51:50.778Z,7.20
2018-10-11T18:54:19.236Z,8.90
2018-10-11T18:56:47.705Z,10.50
2018-10-11T18:59:16.201Z,9.17
2018-10-11T19:01:44.686Z,8.00
2018-10-11T19:04:13.137Z,9.87
2018-10-11T19:06:41.593Z,7.77
2018-10-11T19:09:10.094Z,7.37
2018-10-11T19:11:38.890Z,9.47
2018-10-11T19:14:07.454Z,8.30
2018-10-11T19:16:36.029Z,8.50
2018-10-11T19:19:04.519Z,7.20
2018-10-11T19:21:32.966Z,7.53
2018-10-11T19:24:01.442Z,7.37
2018-10-11T19:26:29.947Z,7.47
2018-10-11T19:28:58.439Z,7.93
2018-10-11T19:31:26.926Z,9.10
2018-10-11T19:33:55.807Z,7.37
2018-10-11T19:36:24.292Z,7.67
2018-10-11T19:38:52.811Z,10.37
2018-10-11T19:41:21.412Z,7.83
2018-10-11T19:43:49.873Z,8.23
2018-10-11T19:46:18.377Z,9.23
2018-10-11T19:48:46.959Z,8.60
2018-10-11T19:51:15.429Z,8.73
2018-10-11T19:55:08.071Z,8.67
2018-10-11T19:57:37.056Z,8.67
2018-10-11T20:00:05.926Z,8.73
2018-10-11T20:02:34.506Z,7.70
2018-10-11T20:05:02.975Z,7.97
2018-10-11T20:07:31.486Z,8.37
2018-10-11T20:10:00.022Z,8.20
2018-10-11T20:12:29.502Z,7.50
2018-10-11T20:14:58.006Z,8.93
2018-10-11T20:17:26.633Z,8.50
2018-10-11T20:19:55.512Z,8.37
2018-10-11T20:22:23.965Z,8.17
2018-10-11T20:24:52.482Z,8.23
2018-10-11T20:27:20.973Z,8.60
2018-10-11T20:29:49.453Z,7.17
2018-10-11T20:32:17.911Z,8.13
2018-10-11T20:34:46.718Z,7.53
2018-10-11T20:37:15.228Z,8.93
2018-10-11T20:39:43.706Z,8.43
2018-10-11T20:42:12.182Z,7.90
2018-10-11T20:44:41.008Z,7.87
2018-10-11T20:47:09.550Z,8.90
2018-10-11T20:49:38.140Z,10.30
2018-10-11T20:52:06.791Z,9.03
2018-10-11T20:54:35.240Z,8.63
2018-10-11T20:57:03.753Z,9.83
2018-10-11T20:59:32.233Z,7.33
2018-10-11T21:02:00.717Z,8.80
2018-10-11T21:04:29.301Z,9.50
2018-10-11T21:06:58.089Z,8.37
2018-10-11T21:09:26.571Z,9.00
2018-10-11T21:11:55.181Z,10.40
2018-10-11T21:14:23.537Z,10.60
2018-10-11T21:16:51.999Z,10.60
2018-10-11T21:19:20.476Z,10.37
2018-10-11T21:21:48.935Z,9.37
2018-10-11T21:24:17.392Z,10.47
2018-10-11T21:26:45.855Z,10.00
2018-10-11T21:29:14.321Z,9.83
2018-10-11T21:31:42.798Z,9.70
2018-10-11T21:34:11.294Z,9.47
2018-10-11T21:36:39.714Z,10.37
2018-10-11T21:39:10.646Z,10.23
2018-10-11T21:41:39.226Z,9.70
2018-10-11T21:44:07.723Z,9.60
2018-10-11T21:46:36.188Z,10.00
2018-10-11T21:49:04.681Z,10.10
2018-10-11T21:51:33.215Z,9.30
2018-10-11T21:54:01.665Z,10.37
2018-10-11T21:56:30.492Z,9.43
2018-10-11T21:58:58.975Z,10.47
2018-10-11T22:01:27.417Z,10.87
2018-10-11T22:03:55.868Z,10.87
2018-10-11T22:06:24.470Z,10.73
2018-10-11T22:08:52.901Z,9.70
2018-10-11T22:11:21.348Z,9.97
2018-10-11T22:13:49.790Z,9.93
2018-10-11T22:16:18.248Z,11.53
2018-10-11T22:18:46.737Z,10.27
2018-10-11T22:21:15.185Z,10.90
2018-10-11T22:23:44.102Z,11.23
2018-10-11T22:26:12.862Z,10.90
2018-10-11T22:28:41.752Z,13.17
2018-10-11T22:31:13.995Z,9.67
2018-10-11T22:33:43.044Z,10.70
2018-10-11T22:36:13.045Z,11.80
2018-10-11T22:38:42.195Z,13.23
2018-10-11T22:41:11.705Z,12.20
2018-10-11T22:43:40.797Z,12.13
2018-10-11T22:46:10.096Z,14.30
2018-10-11T22:48:38.555Z,10.53
2018-10-11T22:51:07.084Z,11.17
2018-10-11T22:53:35.983Z,10.57
2018-10-11T22:56:04.449Z,10.97
2018-10-11T22:58:32.923Z,11.17
2018-10-11T23:01:01.437Z,10.70
2018-10-11T23:03:30.223Z,10.87
2018-10-11T23:05:58.684Z,12.87
2018-10-11T23:08:27.109Z,11.47
2018-10-11T23:10:57.173Z,12.93
2018-10-11T23:13:25.739Z,11.87
2018-10-11T23:15:54.253Z,12.67
2018-10-11T23:18:23.654Z,10.43
2018-10-11T23:20:52.093Z,12.97
2018-10-11T23:23:20.525Z,11.37
2018-10-11T23:25:48.970Z,12.93
2018-10-11T23:28:17.452Z,9.73
2018-10-11T23:30:45.923Z,11.87
2018-10-11T23:33:14.361Z,11.00
2018-10-11T23:35:42.798Z,10.43
2018-10-11T23:38:11.257Z,11.00
2018-10-11T23:40:40.160Z,10.83
2018-10-11T23:43:08.713Z,10.60
2018-10-11T23:45:37.162Z,11.83
2018-10-11T23:48:05.698Z,11.97
2018-10-11T23:50:34.184Z,11.53
2018-10-11T23:53:02.664Z,11.63
2018-10-11T23:55:32.503Z,10.13
2018-10-11T23:58:02.024Z,10.20
